Time;durP1;ratioP1;P1;durP2;ratioP2;P2;SDS_P1;SDS_P2;PMS_P1;PMS_P2;Temp;Humidity;BMP_temperature;BMP_pressure;BME280_temperature;BME280_humidity;BME280_pressure;Samples;Min_cycle;Max_cycle;Signal;HPM_P1;HPM_P2
2023/10/25 00:00:41;;;;;;;5.28;2.20;;;;;;;9.96;100.00;100230.75;5027034;28;20121;-75
2023/10/25 00:03:12;;;;;;;4.18;2.20;;;;;;;10.00;100.00;100231.69;5020203;28;20096;-79
2023/10/25 00:05:41;;;;;;;6.32;2.33;;;;;;;10.01;100.00;100225.69;5021015;28;20053;-77
2023/10/25 00:08:11;;;;;;;6.65;2.22;;;;;;;9.97;100.00;100227.34;5030383;28;20282;-76
2023/10/25 00:10:42;;;;;;;5.70;2.63;;;;;;;10.00;100.00;100226.53;5024873;28;20450;-79
2023/10/25 00:13:10;;;;;;;5.65;3.40;;;;;;;10.00;100.00;100227.41;5024949;28;20061;-76
2023/10/25 00:15:39;;;;;;;4.68;2.33;;;;;;;9.98;100.00;100223.03;5021374;28;20042;-75
2023/10/25 00:18:08;;;;;;;6.35;2.70;;;;;;;9.92;100.00;100204.78;5016782;28;20046;-70
2023/10/25 00:20:37;;;;;;;4.20;2.70;;;;;;;9.92;100.00;100197.94;5016174;28;20277;-69
2023/10/25 00:23:05;;;;;;;6.55;3.03;;;;;;;9.95;100.00;100203.16;5019541;28;20045;-70
2023/10/25 00:25:35;;;;;;;7.32;2.40;;;;;;;9.95;100.00;100203.16;5025296;28;20045;-71
2023/10/25 00:28:04;;;;;;;5.95;2.55;;;;;;;9.92;100.00;100208.28;5017489;28;20422;-71
2023/10/25 00:30:33;;;;;;;4.30;2.45;;;;;;;9.89;100.00;100203.00;5019527;28;20052;-71
2023/10/25 00:33:03;;;;;;;5.00;2.70;;;;;;;9.93;100.00;100193.63;5020297;28;20547;-73
2023/10/25 00:35:32;;;;;;;7.65;2.15;;;;;;;9.92;100.00;100187.59;5020521;28;20053;-71
2023/10/25 00:38:00;;;;;;;7.43;3.40;;;;;;;9.94;100.00;100179.88;5016205;28;20076;-72
2023/10/25 00:40:29;;;;;;;4.05;2.60;;;;;;;9.96;100.00;100162.69;5016261;28;20100;-72
2023/10/25 00:43:16;;;;;;;5.18;2.17;;;;;;;9.98;100.00;100154.13;5018594;28;20085;-72
2023/10/25 00:46:05;;;;;;;3.88;1.88;;;;;;;9.98;100.00;100141.19;5018405;28;20137;-72
2023/10/25 00:48:35;;;;;;;4.05;2.42;;;;;;;10.00;100.00;100129.19;5025140;28;20490;-71
2023/10/25 00:51:03;;;;;;;3.63;2.20;;;;;;;10.02;100.00;100152.50;5022455;28;20107;-71
2023/10/25 00:53:35;;;;;;;5.30;2.35;;;;;;;10.02;100.00;100131.81;5021318;28;20565;-71
2023/10/25 00:56:03;;;;;;;4.25;1.90;;;;;;;10.03;100.00;100138.72;5025168;28;20045;-70
2023/10/25 00:58:34;;;;;;;5.30;2.28;;;;;;;10.04;100.00;100132.72;5020186;28;20104;-71
2023/10/25 01:01:03;;;;;;;4.40;2.30;;;;;;;10.03;100.00;100134.44;5024078;28;20061;-71
2023/10/25 01:03:32;;;;;;;4.32;2.33;;;;;;;10.01;100.00;100130.94;5025127;28;20044;-70
2023/10/25 01:06:05;;;;;;;2.65;1.65;;;;;;;10.03;100.00;100131.84;5019156;28;20049;-70
2023/10/25 01:08:34;;;;;;;5.97;2.10;;;;;;;10.04;100.00;100135.31;5021648;28;20072;-70
2023/10/25 01:11:03;;;;;;;3.67;2.42;;;;;;;10.03;100.00;100141.31;5016854;28;20111;-70
2023/10/25 01:13:33;;;;;;;4.13;2.03;;;;;;;10.03;100.00;100138.72;5023240;28;20045;-70
2023/10/25 01:16:02;;;;;;;4.65;1.83;;;;;;;10.04;100.00;100138.75;5019971;28;20050;-70
2023/10/25 01:18:30;;;;;;;3.70;2.10;;;;;;;10.00;100.00;100129.19;5022984;28;20041;-70
2023/10/25 01:20:59;;;;;;;10.13;2.00;;;;;;;10.02;100.00;100137.00;5004396;28;20164;-71
2023/10/25 01:23:29;;;;;;;3.92;2.42;;;;;;;10.02;100.00;100137.00;5017896;28;20049;-72
2023/10/25 01:25:58;;;;;;;3.00;2.03;;;;;;;9.98;100.00;100117.06;5015561;28;20114;-72
2023/10/25 01:28:27;;;;;;;5.72;2.38;;;;;;;9.99;100.00;100113.66;5016436;28;20544;-71
2023/10/25 01:30:57;;;;;;;4.60;1.98;;;;;;;9.99;100.00;100121.41;5022377;28;20053;-71
2023/10/25 01:33:26;;;;;;;4.68;2.38;;;;;;;9.94;100.00;100118.75;5022960;28;20052;-71
2023/10/25 01:35:55;;;;;;;5.85;1.88;;;;;;;9.95;100.00;100106.69;5020243;28;20722;-72
2023/10/25 01:38:23;;;;;;;4.35;1.60;;;;;;;9.94;100.00;100108.41;5019094;28;20576;-71
2023/10/25 01:40:52;;;;;;;5.22;2.20;;;;;;;9.93;100.00;100121.28;5017830;28;20042;-71
2023/10/25 01:43:24;;;;;;;6.55;2.20;;;;;;;9.92;100.00;100102.31;5018792;28;20095;-71
2023/10/25 01:45:52;;;;;;;3.00;1.80;;;;;;;9.92;100.00;100098.84;5011384;28;20053;-71
2023/10/25 01:48:21;;;;;;;4.90;1.95;;;;;;;9.86;100.00;100103.03;5018984;28;20048;-71
2023/10/25 01:50:53;;;;;;;12.40;2.40;;;;;;;9.81;100.00;100099.50;5026499;28;20049;-71
2023/10/25 01:53:24;;;;;;;8.10;2.00;;;;;;;9.82;100.00;100088.31;5022284;28;20613;-70
2023/10/25 01:55:55;;;;;;;7.47;2.00;;;;;;;9.80;100.00;100092.59;5025799;28;20070;-71
2023/10/25 01:58:23;;;;;;;2.53;2.15;;;;;;;9.76;100.00;100090.78;5019221;28;20111;-71
2023/10/25 02:00:52;;;;;;;8.35;2.42;;;;;;;9.75;100.00;100104.50;5020387;28;20780;-71
2023/10/25 02:03:22;;;;;;;6.28;2.10;;;;;;;9.75;100.00;100101.94;5023876;28;20049;-71
2023/10/25 02:05:51;;;;;;;3.78;1.98;;;;;;;9.80;100.00;100099.44;5020663;28;20038;-71
2023/10/25 02:08:21;;;;;;;5.65;1.77;;;;;;;9.80;100.00;100092.59;5020853;28;20107;-71
2023/10/25 02:10:50;;;;;;;5.05;2.63;;;;;;;9.81;100.00;100096.91;5022743;28;20075;-70
2023/10/25 02:13:21;;;;;;;3.90;1.85;;;;;;;9.77;100.00;100089.06;5017165;28;20567;-71
2023/10/25 02:15:49;;;;;;;5.13;1.85;;;;;;;9.71;100.00;100086.34;5021567;28;20049;-71
2023/10/25 02:18:18;;;;;;;3.70;2.10;;;;;;;9.75;100.00;100077.81;5015694;28;20077;-71
2023/10/25 02:20:46;;;;;;;3.50;1.55;;;;;;;9.75;100.00;100086.44;5027355;28;20052;-70
2023/10/25 02:23:15;;;;;;;2.38;1.75;;;;;;;9.77;100.00;100082.19;5023944;28;20060;-71
2023/10/25 02:25:43;;;;;;;3.33;1.70;;;;;;;9.75;100.00;100075.22;5022338;28;20045;-71
2023/10/25 02:28:12;;;;;;;3.38;1.45;;;;;;;9.78;100.00;100071.03;5017424;28;20081;-71
2023/10/25 02:30:42;;;;;;;3.00;1.65;;;;;;;9.82;100.00;100065.06;5023631;28;20634;-71
2023/10/25 02:33:11;;;;;;;3.42;1.88;;;;;;;9.84;100.00;100060.78;5022937;28;20050;-70
2023/10/25 02:35:40;;;;;;;4.32;1.67;;;;;;;9.79;100.00;100051.22;5020662;28;20515;-71
2023/10/25 02:38:08;;;;;;;4.18;2.00;;;;;;;9.86;100.00;100059.13;5023732;28;20092;-72
2023/10/25 02:40:41;;;;;;;2.25;1.48;;;;;;;9.85;100.00;100046.19;5026279;28;20049;-72
2023/10/25 02:43:09;;;;;;;2.58;1.50;;;;;;;9.85;100.00;100035.84;5023428;28;20052;-73
2023/10/25 02:45:38;;;;;;;3.70;1.67;;;;;;;9.83;100.00;100037.53;5023306;28;20527;-72
2023/10/25 02:48:13;;;;;;;2.95;1.52;;;;;;;9.82;100.00;100028.00;5028470;28;20483;-71
2023/10/25 02:50:41;;;;;;;2.35;1.42;;;;;;;9.81;100.00;100028.88;5025219;28;20045;-70
2023/10/25 02:53:10;;;;;;;7.10;1.67;;;;;;;9.81;100.00;100034.91;5022831;28;20052;-70
2023/10/25 02:55:38;;;;;;;3.45;1.42;;;;;;;9.75;100.00;100014.09;5024761;28;20111;-71
2023/10/25 02:58:07;;;;;;;3.92;1.48;;;;;;;9.68;100.00;100014.81;5026004;28;20452;-71
2023/10/25 03:00:35;;;;;;;1.25;1.00;;;;;;;9.70;100.00;100000.22;5023450;28;20133;-73
2023/10/25 03:03:04;;;;;;;2.50;1.48;;;;;;;9.68;100.00;99996.72;5024189;28;20049;-72
2023/10/25 03:05:35;;;;;;;2.85;1.58;;;;;;;9.70;100.00;99987.31;5018688;28;20050;-72
2023/10/25 03:08:04;;;;;;;2.30;1.52;;;;;;;9.63;100.00;99980.28;5022571;28;20056;-71
2023/10/25 03:10:32;;;;;;;2.38;1.70;;;;;;;9.63;100.00;99978.56;5023473;28;20132;-70
2023/10/25 03:13:01;;;;;;;3.45;1.65;;;;;;;9.63;100.00;99959.59;5025738;28;20049;-70
2023/10/25 03:15:30;;;;;;;3.30;1.77;;;;;;;9.64;100.00;99967.41;5020425;28;20045;-71
2023/10/25 03:17:58;;;;;;;2.92;1.38;;;;;;;9.60;100.00;99951.81;5021170;28;20135;-71
2023/10/25 03:20:27;;;;;;;2.97;1.58;;;;;;;9.54;100.00;99949.09;5022483;28;20053;-71
2023/10/25 03:22:57;;;;;;;5.65;2.15;;;;;;;9.61;100.00;99950.94;5026292;28;20050;-72
2023/10/25 03:25:26;;;;;;;4.07;1.83;;;;;;;9.63;100.00;99951.84;5023372;28;20060;-72
2023/10/25 03:27:54;;;;;;;3.83;1.67;;;;;;;9.64;100.00;99948.41;5014504;28;20076;-73
2023/10/25 03:30:23;;;;;;;2.22;1.35;;;;;;;9.61;100.00;99954.41;5018288;28;20047;-72
2023/10/25 03:32:52;;;;;;;3.65;2.00;;;;;;;9.63;100.00;99941.53;5021167;28;20057;-71
2023/10/25 03:35:21;;;;;;;3.58;1.40;;;;;;;9.57;100.00;99934.50;5020943;28;20579;-71
2023/10/25 03:37:55;;;;;;;2.42;1.33;;;;;;;9.64;100.00;99936.41;5020161;28;20128;-73
2023/10/25 03:40:25;;;;;;;4.15;1.65;;;;;;;9.65;100.00;99926.94;5021412;28;20077;-71
2023/10/25 03:42:54;;;;;;;5.00;1.33;;;;;;;9.61;100.00;99938.03;5015909;28;20057;-70
2023/10/25 03:45:23;;;;;;;3.17;1.38;;;;;;;9.61;100.00;99927.72;5021550;28;20100;-70
2023/10/25 03:47:51;;;;;;;3.95;1.60;;;;;;;9.61;100.00;99922.53;5015218;28;21392;-71
2023/10/25 03:50:21;;;;;;;1.58;1.15;;;;;;;9.62;100.00;99924.28;5015842;28;20695;-73
2023/10/25 03:52:49;;;;;;;5.18;1.55;;;;;;;9.64;100.00;99932.91;5004529;28;20054;-71
2023/10/25 03:55:18;;;;;;;2.05;1.23;;;;;;;9.69;100.00;99927.84;5023547;28;20835;-72
2023/10/25 03:57:49;;;;;;;5.85;1.33;;;;;;;9.69;100.00;99914.94;5015121;28;20080;-75
2023/10/25 04:00:18;;;;;;;3.85;1.13;;;;;;;9.60;100.00;99915.66;5016963;28;20518;-73
2023/10/25 04:02:47;;;;;;;2.30;1.50;;;;;;;9.64;100.00;99917.44;5023335;28;20071;-73
2023/10/25 04:05:15;;;;;;;3.00;1.30;;;;;;;9.67;100.00;99921.78;5023315;28;20073;-73
2023/10/25 04:07:46;;;;;;;2.83;1.63;;;;;;;9.65;100.00;99924.34;5021741;28;20104;-73
2023/10/25 04:10:19;;;;;;;2.75;1.73;;;;;;;9.64;100.00;99927.75;5019499;28;20069;-73
2023/10/25 04:12:50;;;;;;;4.55;1.75;;;;;;;9.64;100.00;99912.25;5016212;28;20166;-72
2023/10/25 04:15:18;;;;;;;3.17;1.85;;;;;;;9.64;100.00;99914.84;5025658;28;20068;-72
2023/10/25 04:17:47;;;;;;;3.83;1.80;;;;;;;9.67;100.00;99927.84;5016973;28;20050;-74
2023/10/25 04:20:16;;;;;;;5.50;2.58;;;;;;;9.61;100.00;99930.28;5026440;28;20060;-75
2023/10/25 04:22:44;;;;;;;3.55;1.83;;;;;;;9.60;100.00;99924.25;5020406;28;20061;-75
2023/10/25 04:25:15;;;;;;;3.08;1.90;;;;;;;9.70;100.00;99933.06;5019440;28;20056;-73
2023/10/25 04:27:44;;;;;;;6.45;2.47;;;;;;;9.75;100.00;99935.72;5021529;28;20061;-73
2023/10/25 04:30:14;;;;;;;3.00;1.90;;;;;;;9.76;100.00;99938.34;5018543;28;20058;-73
2023/10/25 04:32:44;;;;;;;4.60;2.00;;;;;;;9.80;100.00;99939.25;5022497;28;20046;-72
2023/10/25 04:35:13;;;;;;;3.45;1.75;;;;;;;9.86;100.00;99960.06;5026405;28;20081;-73
2023/10/25 04:37:41;;;;;;;3.53;1.95;;;;;;;9.91;100.00;99962.75;5031515;28;20049;-73
2023/10/25 04:40:11;;;;;;;3.65;1.90;;;;;;;9.94;100.00;99967.97;5026059;28;20046;-74
2023/10/25 04:42:40;;;;;;;4.60;1.33;;;;;;;9.97;100.00;99980.97;5018414;28;20050;-73
2023/10/25 04:45:09;;;;;;;2.25;1.10;;;;;;;10.00;100.00;99984.44;5022069;28;20122;-72
2023/10/25 04:47:40;;;;;;;3.20;1.13;;;;;;;10.00;100.00;99962.91;5018716;28;20048;-74
2023/10/25 04:50:09;;;;;;;4.38;1.05;;;;;;;9.94;100.00;99949.88;5015938;28;20053;-75
2023/10/25 04:52:38;;;;;;;1.88;1.30;;;;;;;9.94;100.00;99939.53;5019954;28;20128;-73
2023/10/25 04:55:07;;;;;;;1.83;1.40;;;;;;;9.97;100.00;99924.97;5024452;28;20077;-74
2023/10/25 04:57:36;;;;;;;1.63;1.05;;;;;;;10.00;100.00;99913.81;5023345;28;20049;-73
2023/10/25 05:00:07;;;;;;;3.42;1.67;;;;;;;10.04;100.00;99919.06;5021983;28;20046;-73
2023/10/25 05:02:36;;;;;;;2.38;0.98;;;;;;;10.07;100.00;99913.06;5030435;28;20108;-73
2023/10/25 05:05:07;;;;;;;2.95;1.60;;;;;;;10.08;100.00;99909.66;5021737;28;20042;-73
2023/10/25 05:07:38;;;;;;;4.70;1.65;;;;;;;10.08;100.00;99920.00;5024233;28;20126;-73
2023/10/25 05:10:08;;;;;;;2.50;1.60;;;;;;;10.09;100.00;99926.03;5021624;28;20123;-73
2023/10/25 05:12:39;;;;;;;4.05;1.08;;;;;;;10.12;100.00;99921.78;5023286;28;20466;-72
2023/10/25 05:15:09;;;;;;;2.63;1.38;;;;;;;10.12;100.00;99915.75;5016500;28;20042;-73
2023/10/25 05:17:40;;;;;;;2.15;1.27;;;;;;;10.14;100.00;99914.91;5018538;28;20490;-73
2023/10/25 05:20:11;;;;;;;5.07;1.40;;;;;;;10.16;100.00;99913.25;5021829;28;20132;-73
2023/10/25 05:22:54;;;;;;;1.30;1.13;;;;;;;10.17;100.00;99920.16;5022225;28;20095;-73
2023/10/25 05:25:23;;;;;;;2.22;1.48;;;;;;;10.17;100.00;99916.69;5020667;28;20046;-72
2023/10/25 05:27:52;;;;;;;1.73;1.10;;;;;;;10.17;100.00;99904.66;5024198;28;20081;-72
2023/10/25 05:30:22;;;;;;;2.10;1.38;;;;;;;10.19;100.00;99918.47;5019982;28;20414;-73
2023/10/25 05:32:54;;;;;;;2.13;1.38;;;;;;;10.21;100.00;99916.75;5021175;28;20120;-72
2023/10/25 05:35:25;;;;;;;3.63;1.17;;;;;;;10.20;100.00;99911.59;5017603;28;20046;-72
2023/10/25 05:37:54;;;;;;;2.72;1.15;;;;;;;10.20;100.00;99916.75;5022772;28;20058;-72
2023/10/25 05:40:24;;;;;;;4.25;1.90;;;;;;;10.21;100.00;99940.03;5021132;28;20049;-72
2023/10/25 05:42:57;;;;;;;1.67;1.20;;;;;;;10.22;100.00;99949.53;5020723;28;20053;-73
2023/10/25 05:45:26;;;;;;;1.55;1.23;;;;;;;10.20;100.00;99945.19;5017343;28;20081;-71
2023/10/25 05:47:55;;;;;;;2.35;1.42;;;;;;;10.18;100.00;99942.56;5018891;28;20061;-73
2023/10/25 05:50:26;;;;;;;3.97;1.90;;;;;;;10.21;100.00;99947.78;5018306;28;20088;-73
2023/10/25 05:52:55;;;;;;;2.60;1.60;;;;;;;10.21;100.00;99942.63;5026298;28;20050;-73
2023/10/25 05:55:26;;;;;;;2.60;1.63;;;;;;;10.23;100.00;99925.41;5019374;28;20060;-73
2023/10/25 05:57:55;;;;;;;2.58;1.35;;;;;;;10.24;100.00;99916.84;5026816;28;20224;-73
2023/10/25 06:00:25;;;;;;;1.90;1.55;;;;;;;10.24;100.00;99929.78;5026826;28;20367;-72
2023/10/25 06:02:57;;;;;;;4.90;1.67;;;;;;;10.24;100.00;99922.00;5015964;28;20076;-73
2023/10/25 06:05:31;;;;;;;5.32;2.10;;;;;;;10.24;100.00;99927.19;5026039;28;20124;-73
2023/10/25 06:08:00;;;;;;;2.42;1.40;;;;;;;10.27;100.00;99926.38;5022781;28;20081;-73
2023/10/25 06:10:29;;;;;;;1.98;1.35;;;;;;;10.26;100.00;99927.19;5020389;28;20058;-72
2023/10/25 06:12:58;;;;;;;2.33;1.17;;;;;;;10.30;100.00;99920.41;5020565;28;20049;-73
2023/10/25 06:15:27;;;;;;;3.28;1.45;;;;;;;10.32;100.00;99939.41;5024936;28;20099;-74
2023/10/25 06:17:56;;;;;;;2.20;1.33;;;;;;;10.29;100.00;99939.34;5018297;28;20100;-74
2023/10/25 06:20:26;;;;;;;2.65;1.08;;;;;;;10.29;100.00;99957.47;5021102;28;20041;-73
2023/10/25 06:22:56;;;;;;;1.27;0.80;;;;;;;10.32;100.00;99967.84;5021594;28;20073;-73
2023/10/25 06:25:28;;;;;;;0.80;0.45;;;;;;;10.32;100.00;99960.09;5017798;28;20057;-73
2023/10/25 06:27:57;;;;;;;1.10;0.70;;;;;;;10.33;100.00;99946.31;5019426;28;20112;-73
2023/10/25 06:30:26;;;;;;;3.10;0.80;;;;;;;10.34;100.00;99950.66;5017763;28;20041;-73
2023/10/25 06:32:55;;;;;;;0.50;0.32;;;;;;;10.35;100.00;99945.47;5019013;28;20041;-73
2023/10/25 06:35:23;;;;;;;1.40;0.60;;;;;;;10.35;100.00;99947.19;5018707;28;20038;-73
2023/10/25 06:37:54;;;;;;;0.95;0.70;;;;;;;10.34;100.00;99954.09;5020488;28;20065;-72
2023/10/25 06:40:23;;;;;;;0.90;0.60;;;;;;;10.34;100.00;99968.75;5022977;28;20510;-73
2023/10/25 06:42:54;;;;;;;1.75;0.55;;;;;;;10.34;100.00;99958.41;5018650;28;20085;-74
2023/10/25 06:45:24;;;;;;;1.63;0.75;;;;;;;10.32;100.00;99960.09;5018495;28;20562;-72
2023/10/25 06:47:54;;;;;;;2.53;0.50;;;;;;;10.30;100.00;99951.44;5017904;28;20046;-72
2023/10/25 06:50:25;;;;;;;0.85;0.55;;;;;;;10.29;100.00;99950.56;5018208;28;20053;-72
2023/10/25 06:52:56;;;;;;;1.45;0.93;;;;;;;10.30;100.00;99951.44;5019643;28;20044;-73
2023/10/25 06:55:25;;;;;;;0.98;0.60;;;;;;;10.25;100.00;99943.56;5025313;28;20495;-72
2023/10/25 06:57:54;;;;;;;1.20;0.47;;;;;;;10.21;100.00;99940.03;5016460;28;20046;-73
2023/10/25 07:00:28;;;;;;;0.43;0.35;;;;;;;10.17;100.00;99940.84;5017510;28;20045;-73
2023/10/25 07:03:01;;;;;;;0.98;0.55;;;;;;;10.14;100.00;99955.41;5020337;28;20057;-72
2023/10/25 07:05:31;;;;;;;1.08;0.73;;;;;;;10.10;100.00;99957.09;5020288;28;20518;-72
2023/10/25 07:08:10;;;;;;;4.55;0.57;;;;;;;10.07;100.00;99954.44;5024750;28;20046;-73
2023/10/25 07:10:39;;;;;;;1.42;0.60;;;;;;;10.05;100.00;99951.81;5023354;28;20088;-72
2023/10/25 07:13:08;;;;;;;0.95;0.60;;;;;;;10.04;100.00;99959.56;5025533;28;20050;-72
2023/10/25 07:15:37;;;;;;;0.75;0.35;;;;;;;10.02;100.00;99956.06;5020739;28;20049;-72
2023/10/25 07:18:05;;;;;;;0.38;0.32;;;;;;;9.97;100.00;99955.97;5020987;28;20205;-72
2023/10/25 07:20:34;;;;;;;0.50;0.50;;;;;;;9.91;100.00;99944.66;5023479;28;20045;-72
2023/10/25 07:23:04;;;;;;;0.70;0.50;;;;;;;9.89;100.00;99954.09;5022716;28;20052;-72
2023/10/25 07:25:33;;;;;;;0.70;0.50;;;;;;;9.88;100.00;99957.53;5016862;28;20491;-73
2023/10/25 07:28:02;;;;;;;2.53;0.73;;;;;;;9.85;100.00;99938.53;5021363;28;20468;-73
2023/10/25 07:30:30;;;;;;;0.95;0.63;;;;;;;9.83;100.00;99935.03;5019164;28;20076;-71
2023/10/25 07:32:59;;;;;;;2.35;0.50;;;;;;;9.81;100.00;99936.72;5023846;28;20124;-72
2023/10/25 07:35:28;;;;;;;0.98;0.50;;;;;;;9.84;100.00;99941.06;5025668;28;20045;-71
2023/10/25 07:37:56;;;;;;;1.45;0.40;;;;;;;9.81;100.00;99941.88;5023772;28;20073;-73
2023/10/25 07:40:26;;;;;;;1.13;0.45;;;;;;;9.81;100.00;99951.38;5026302;28;20049;-73
2023/10/25 07:42:57;;;;;;;0.40;0.35;;;;;;;9.80;100.00;99955.66;5024506;28;20057;-72
2023/10/25 07:45:25;;;;;;;0.90;0.40;;;;;;;9.80;100.00;99966.00;5026089;28;20085;-72
2023/10/25 07:47:54;;;;;;;1.17;0.35;;;;;;;9.80;100.00;99967.69;5027285;28;20116;-72
2023/10/25 07:50:22;;;;;;;0.50;0.38;;;;;;;9.74;100.00;99965.00;5026778;28;20045;-72
2023/10/25 07:52:51;;;;;;;0.57;0.30;;;;;;;9.78;100.00;99978.00;5023038;28;20136;-73
2023/10/25 07:55:22;;;;;;;0.52;0.13;;;;;;;9.78;100.00;99972.84;5027595;28;20119;-71
2023/10/25 07:57:54;;;;;;;0.57;0.30;;;;;;;9.80;100.00;99980.59;5019204;28;20062;-71
2023/10/25 08:00:22;;;;;;;0.43;0.17;;;;;;;9.79;100.00;99984.91;5026456;28;20049;-73
2023/10/25 08:02:51;;;;;;;1.48;0.50;;;;;;;9.76;100.00;99974.53;5025779;28;20095;-72
2023/10/25 08:05:19;;;;;;;1.80;0.20;;;;;;;9.71;100.00;99970.09;5023995;28;20052;-70
2023/10/25 08:07:54;;;;;;;1.30;0.38;;;;;;;9.64;100.00;99972.56;5022061;28;20049;-72
2023/10/25 08:10:22;;;;;;;2.08;0.30;;;;;;;9.61;100.00;99975.06;5024335;28;20080;-72
2023/10/25 08:12:52;;;;;;;2.53;0.43;;;;;;;9.58;100.00;99985.34;5022722;28;20435;-72
2023/10/25 08:15:21;;;;;;;1.23;0.52;;;;;;;9.58;100.00;99987.06;5020552;28;20136;-73
2023/10/25 08:17:56;;;;;;;2.25;0.65;;;;;;;9.57;100.00;99993.03;5019799;28;20041;-72
2023/10/25 08:20:25;;;;;;;2.47;0.55;;;;;;;9.56;100.00;99987.03;5022309;28;20049;-71
2023/10/25 08:22:55;;;;;;;0.63;0.30;;;;;;;9.55;100.00;99989.56;5027129;28;20061;-72
2023/10/25 08:25:26;;;;;;;0.77;0.50;;;;;;;9.47;100.00;99979.06;5023744;28;20136;-72
2023/10/25 08:27:56;;;;;;;1.23;0.22;;;;;;;9.50;100.00;99986.00;5023351;28;20137;-72
2023/10/25 08:30:25;;;;;;;0.45;0.35;;;;;;;9.50;100.00;99989.47;5022593;28;20077;-72
2023/10/25 08:32:53;;;;;;;2.67;0.43;;;;;;;9.50;100.00;99986.00;5018983;28;20068;-72
2023/10/25 08:35:22;;;;;;;1.95;0.68;;;;;;;9.51;100.00;99988.63;5022104;28;20084;-71
2023/10/25 08:37:52;;;;;;;0.80;0.35;;;;;;;9.51;100.00;99988.63;5020701;28;20045;-71
2023/10/25 08:40:21;;;;;;;4.70;1.13;;;;;;;9.52;100.00;99995.53;5026114;28;20107;-72
2023/10/25 08:42:51;;;;;;;2.03;0.40;;;;;;;9.50;100.00;99993.75;5027699;28;20046;-71
2023/10/25 08:45:21;;;;;;;2.03;0.70;;;;;;;9.50;100.00;100001.50;5022479;28;20128;-71
2023/10/25 08:47:50;;;;;;;4.22;0.75;;;;;;;9.52;100.00;99999.84;5019700;28;20050;-72
2023/10/25 08:50:20;;;;;;;1.38;0.50;;;;;;;9.52;100.00;100005.00;5024017;28;20045;-70
2023/10/25 08:52:50;;;;;;;1.02;0.50;;;;;;;9.49;100.00;100010.09;5028705;28;20045;-71
2023/10/25 08:55:20;;;;;;;2.65;0.70;;;;;;;9.47;100.00;100009.19;5019351;28;20046;-71
2023/10/25 08:57:54;;;;;;;0.98;0.60;;;;;;;9.42;100.00;100007.38;5022528;28;20054;-70
2023/10/25 09:00:28;;;;;;;1.05;0.60;;;;;;;9.41;100.00;100010.81;5021665;28;20045;-70
2023/10/25 09:02:58;;;;;;;2.25;0.60;;;;;;;9.40;100.00;100001.31;5024298;28;20037;-70
2023/10/25 09:05:42;;;;;;;4.10;0.75;;;;;;;9.43;100.00;100001.38;5026363;28;20103;-71
2023/10/25 09:08:24;;;;;;;2.40;0.60;;;;;;;9.41;100.00;99991.84;5023801;28;20471;-72
2023/10/25 09:10:56;;;;;;;3.60;0.35;;;;;;;9.36;100.00;99989.16;5021939;28;20221;-71
2023/10/25 09:13:25;;;;;;;2.38;0.65;;;;;;;9.26;100.00;99994.09;5016262;28;20065;-71
2023/10/25 09:16:04;;;;;;;1.42;0.52;;;;;;;9.27;100.00;100006.16;5020580;28;20057;-71
2023/10/25 09:18:33;;;;;;;1.45;0.63;;;;;;;9.24;100.00;100019.88;5022094;28;20051;-72
2023/10/25 09:21:02;;;;;;;3.70;0.68;;;;;;;9.27;100.00;100027.69;5018038;28;20099;-71
2023/10/25 09:23:31;;;;;;;4.07;0.60;;;;;;;9.27;100.00;100022.50;5026606;28;20057;-72
2023/10/25 09:26:00;;;;;;;1.85;0.70;;;;;;;9.25;100.00;100026.75;5023284;28;20503;-72
2023/10/25 09:28:30;;;;;;;1.83;0.38;;;;;;;9.25;100.00;100029.34;5020488;28;20072;-72
2023/10/25 09:31:02;;;;;;;0.20;0.20;;;;;;;9.25;100.00;100020.75;5020666;28;20123;-71
2023/10/25 09:33:31;;;;;;;2.38;0.70;;;;;;;9.23;100.00;100021.59;5023698;28;21139;-72
2023/10/25 09:35:59;;;;;;;2.42;0.47;;;;;;;9.21;100.00;100023.25;5016622;28;20056;-72
2023/10/25 09:38:28;;;;;;;2.70;0.77;;;;;;;9.20;100.00;100028.38;5020228;28;20049;-72
2023/10/25 09:41:01;;;;;;;2.17;1.02;;;;;;;9.19;100.00;100027.50;5019907;28;20049;-73
2023/10/25 09:43:31;;;;;;;2.63;0.80;;;;;;;9.18;100.00;100030.91;5019721;28;20050;-72
2023/10/25 09:46:08;;;;;;;1.83;0.57;;;;;;;9.17;100.00;100028.31;5018372;28;20042;-72
2023/10/25 09:48:39;;;;;;;0.90;0.50;;;;;;;9.15;100.00;100015.38;5019773;28;20153;-72
2023/10/25 09:51:15;;;;;;;7.13;0.47;;;;;;;9.14;100.00;100015.31;5019361;28;20546;-72
2023/10/25 09:53:46;;;;;;;6.80;0.68;;;;;;;9.12;100.00;100024.75;5017532;28;20046;-71
2023/10/25 09:56:15;;;;;;;2.53;0.80;;;;;;;9.11;100.00;100033.31;5016513;28;20076;-72
2023/10/25 09:58:46;;;;;;;3.03;0.25;;;;;;;9.13;100.00;100047.13;5018907;28;20057;-72
2023/10/25 10:01:16;;;;;;;1.90;0.40;;;;;;;9.13;100.00;100053.16;5016089;28;20050;-72
2023/10/25 10:03:51;;;;;;;2.55;0.57;;;;;;;9.18;100.00;100053.28;5027238;28;20058;-73
2023/10/25 10:06:35;;;;;;;0.50;0.30;;;;;;;9.22;100.00;100048.22;5017790;28;20073;-72
2023/10/25 10:09:16;;;;;;;2.42;0.40;;;;;;;9.26;100.00;100054.34;5017639;28;20056;-72
2023/10/25 10:11:50;;;;;;;1.55;0.80;;;;;;;9.28;100.00;100041.44;5014537;28;20081;-72
2023/10/25 10:14:33;;;;;;;1.30;0.45;;;;;;;9.26;100.00;100035.41;5019215;28;20060;-72
2023/10/25 10:17:07;;;;;;;1.40;0.30;;;;;;;9.21;100.00;100035.31;5017721;28;20491;-72
2023/10/25 10:19:38;;;;;;;0.70;0.40;;;;;;;9.19;100.00;100031.81;5017516;28;20053;-72
2023/10/25 10:22:08;;;;;;;1.17;0.50;;;;;;;9.15;100.00;100036.00;5015502;28;20328;-72
2023/10/25 10:24:42;;;;;;;3.60;0.57;;;;;;;9.11;100.00;100017.84;5021247;28;20553;-72
2023/10/25 10:27:14;;;;;;;1.45;0.60;;;;;;;9.08;100.00;100012.63;5022734;28;20048;-72
2023/10/25 10:29:45;;;;;;;2.13;0.60;;;;;;;9.04;100.00;100013.38;5014415;28;20064;-73
2023/10/25 10:32:19;;;;;;;2.40;0.63;;;;;;;9.00;100.00;100026.22;5013346;28;20046;-73
2023/10/25 10:34:49;;;;;;;1.52;0.57;;;;;;;8.97;100.00;100026.13;5020340;28;20045;-73
2023/10/25 10:37:20;;;;;;;3.50;0.80;;;;;;;8.94;100.00;100023.47;5014985;28;20511;-72
2023/10/25 10:40:14;;;;;;;1.48;0.68;;;;;;;8.89;100.00;100017.34;5019622;28;20049;-73
2023/10/25 10:42:43;;;;;;;2.60;0.88;;;;;;;8.85;100.00;100027.53;5020022;28;20468;-72
2023/10/25 10:45:19;;;;;;;1.35;0.93;;;;;;;8.76;100.00;100030.75;5021610;28;20076;-71
2023/10/25 10:47:54;;;;;;;1.63;0.88;;;;;;;8.76;100.00;100030.75;5027392;28;20085;-72
2023/10/25 10:50:24;;;;;;;2.05;1.00;;;;;;;8.75;100.00;100036.72;5027099;28;20115;-71
2023/10/25 10:53:03;;;;;;;3.33;1.00;;;;;;;8.74;100.00;100032.44;5022942;28;20042;-71
2023/10/25 10:55:32;;;;;;;5.95;1.17;;;;;;;8.71;100.00;100024.63;5026786;28;20096;-71
2023/10/25 10:58:02;;;;;;;1.98;0.90;;;;;;;8.68;100.00;100016.78;5022228;28;20248;-71
2023/10/25 11:00:33;;;;;;;5.07;1.08;;;;;;;8.66;100.00;100026.19;5025052;28;20058;-72
2023/10/25 11:03:04;;;;;;;1.63;0.95;;;;;;;8.64;100.00;100020.16;5022423;28;20053;-71
2023/10/25 11:05:33;;;;;;;2.40;1.10;;;;;;;8.62;100.00;100027.84;5025163;28;20056;-70
2023/10/25 11:08:02;;;;;;;1.35;0.68;;;;;;;8.60;100.00;100030.34;5022860;28;20057;-71
2023/10/25 11:10:30;;;;;;;0.82;0.52;;;;;;;8.51;100.00;100029.25;5028230;28;20639;-70
2023/10/25 11:13:01;;;;;;;1.70;0.57;;;;;;;8.54;100.00;100048.28;5021932;28;20569;-71
2023/10/25 11:15:31;;;;;;;3.28;0.75;;;;;;;8.54;100.00;100050.84;5015213;28;20076;-69
2023/10/25 11:18:00;;;;;;;1.45;0.68;;;;;;;8.55;100.00;100050.00;5025606;28;20041;-70
2023/10/25 11:20:31;;;;;;;6.45;0.50;;;;;;;8.54;100.00;100044.78;5023508;28;20045;-71
2023/10/25 11:22:59;;;;;;;1.55;0.45;;;;;;;8.55;100.00;100047.44;5025034;28;20057;-72
2023/10/25 11:25:31;;;;;;;1.25;0.63;;;;;;;8.52;100.00;100043.88;5025316;28;20112;-72
2023/10/25 11:28:00;;;;;;;3.20;0.75;;;;;;;8.52;100.00;100052.50;5026421;28;20095;-72
2023/10/25 11:30:30;;;;;;;0.98;0.57;;;;;;;8.52;100.00;100046.47;5022296;28;20045;-71
2023/10/25 11:32:59;;;;;;;0.30;0.20;;;;;;;8.50;100.00;100056.75;5016982;28;20053;-72
2023/10/25 11:35:29;;;;;;;2.35;0.75;;;;;;;8.48;100.00;100058.41;5021165;28;20053;-71
2023/10/25 11:38:02;;;;;;;0.75;0.40;;;;;;;8.50;100.00;100064.50;5025004;28;20036;-71
2023/10/25 11:40:38;;;;;;;5.15;1.23;;;;;;;8.54;100.00;100066.31;5024702;28;20057;-71